sensor_id;sensor_type;location;lat;lon;timestamp;P1;durP1;ratioP1;P2;durP2;ratioP2
46288;SDS011;63105;46.158;14.604;2023-04-25T00:01:46;6.75;;;4.85;;
46288;SDS011;63105;46.158;14.604;2023-04-25T00:04:12;6.95;;;4.72;;
46288;SDS011;63105;46.158;14.604;2023-04-25T00:06:37;10.65;;;7.47;;
46288;SDS011;63105;46.158;14.604;2023-04-25T00:09:03;12.50;;;8.45;;
46288;SDS011;63105;46.158;14.604;2023-04-25T00:11:32;9.10;;;6.35;;
46288;SDS011;63105;46.158;14.604;2023-04-25T00:13:57;8.38;;;6.07;;
46288;SDS011;63105;46.158;14.604;2023-04-25T00:16:22;8.68;;;6.28;;
46288;SDS011;63105;46.158;14.604;2023-04-25T00:18:48;9.15;;;6.18;;
46288;SDS011;63105;46.158;14.604;2023-04-25T00:21:16;7.63;;;5.68;;
46288;SDS011;63105;46.158;14.604;2023-04-25T00:23:43;8.93;;;6.28;;
46288;SDS011;63105;46.158;14.604;2023-04-25T00:26:08;9.05;;;6.82;;
46288;SDS011;63105;46.158;14.604;2023-04-25T00:28:33;15.02;;;11.38;;
46288;SDS011;63105;46.158;14.604;2023-04-25T00:30:58;15.25;;;10.80;;
46288;SDS011;63105;46.158;14.604;2023-04-25T00:33:24;15.00;;;10.95;;
46288;SDS011;63105;46.158;14.604;2023-04-25T00:35:49;15.18;;;11.57;;
46288;SDS011;63105;46.158;14.604;2023-04-25T00:38:14;13.82;;;10.93;;
46288;SDS011;63105;46.158;14.604;2023-04-25T00:40:40;14.18;;;11.25;;
46288;SDS011;63105;46.158;14.604;2023-04-25T00:43:08;14.75;;;10.75;;
46288;SDS011;63105;46.158;14.604;2023-04-25T00:45:33;12.57;;;9.75;;
46288;SDS011;63105;46.158;14.604;2023-04-25T00:48:02;17.23;;;11.65;;
46288;SDS011;63105;46.158;14.604;2023-04-25T00:50:28;13.32;;;9.68;;
46288;SDS011;63105;46.158;14.604;2023-04-25T00:52:53;14.80;;;10.73;;
46288;SDS011;63105;46.158;14.604;2023-04-25T00:55:19;16.83;;;11.82;;
46288;SDS011;63105;46.158;14.604;2023-04-25T00:57:44;18.27;;;13.20;;
46288;SDS011;63105;46.158;14.604;2023-04-25T01:00:10;15.18;;;11.05;;
46288;SDS011;63105;46.158;14.604;2023-04-25T01:02:36;17.02;;;11.77;;
46288;SDS011;63105;46.158;14.604;2023-04-25T01:05:02;12.68;;;9.73;;
46288;SDS011;63105;46.158;14.604;2023-04-25T01:07:28;16.02;;;11.88;;
46288;SDS011;63105;46.158;14.604;2023-04-25T01:09:53;13.48;;;10.23;;
46288;SDS011;63105;46.158;14.604;2023-04-25T01:12:19;11.90;;;8.95;;
46288;SDS011;63105;46.158;14.604;2023-04-25T01:14:44;12.45;;;8.98;;
46288;SDS011;63105;46.158;14.604;2023-04-25T01:17:10;10.80;;;8.40;;
46288;SDS011;63105;46.158;14.604;2023-04-25T01:19:36;12.68;;;9.52;;
46288;SDS011;63105;46.158;14.604;2023-04-25T01:22:01;12.77;;;9.07;;
46288;SDS011;63105;46.158;14.604;2023-04-25T01:24:26;11.57;;;8.48;;
46288;SDS011;63105;46.158;14.604;2023-04-25T01:26:52;13.15;;;9.40;;
46288;SDS011;63105;46.158;14.604;2023-04-25T01:29:18;14.65;;;11.25;;
46288;SDS011;63105;46.158;14.604;2023-04-25T01:31:44;12.27;;;9.35;;
46288;SDS011;63105;46.158;14.604;2023-04-25T01:34:09;17.25;;;12.98;;
46288;SDS011;63105;46.158;14.604;2023-04-25T01:36:34;16.35;;;11.38;;
46288;SDS011;63105;46.158;14.604;2023-04-25T01:39:00;15.38;;;11.35;;
46288;SDS011;63105;46.158;14.604;2023-04-25T01:41:25;15.00;;;11.10;;
46288;SDS011;63105;46.158;14.604;2023-04-25T01:43:51;12.80;;;9.07;;
46288;SDS011;63105;46.158;14.604;2023-04-25T01:46:16;11.70;;;8.77;;
46288;SDS011;63105;46.158;14.604;2023-04-25T01:48:42;10.82;;;8.05;;
46288;SDS011;63105;46.158;14.604;2023-04-25T01:51:07;13.75;;;9.75;;
46288;SDS011;63105;46.158;14.604;2023-04-25T01:53:32;10.75;;;8.13;;
46288;SDS011;63105;46.158;14.604;2023-04-25T01:55:58;11.40;;;8.40;;
46288;SDS011;63105;46.158;14.604;2023-04-25T01:58:23;10.10;;;7.60;;
46288;SDS011;63105;46.158;14.604;2023-04-25T02:00:48;9.98;;;7.15;;
46288;SDS011;63105;46.158;14.604;2023-04-25T02:03:13;9.48;;;6.57;;
46288;SDS011;63105;46.158;14.604;2023-04-25T02:05:39;11.23;;;7.90;;
46288;SDS011;63105;46.158;14.604;2023-04-25T02:08:05;10.90;;;8.48;;
46288;SDS011;63105;46.158;14.604;2023-04-25T02:10:31;10.45;;;8.57;;
46288;SDS011;63105;46.158;14.604;2023-04-25T02:12:56;11.20;;;8.90;;
46288;SDS011;63105;46.158;14.604;2023-04-25T02:15:22;10.57;;;7.70;;
46288;SDS011;63105;46.158;14.604;2023-04-25T02:17:47;9.27;;;6.60;;
46288;SDS011;63105;46.158;14.604;2023-04-25T02:20:12;9.93;;;7.20;;
46288;SDS011;63105;46.158;14.604;2023-04-25T02:22:37;10.55;;;7.47;;
46288;SDS011;63105;46.158;14.604;2023-04-25T02:25:03;9.38;;;7.13;;
46288;SDS011;63105;46.158;14.604;2023-04-25T02:27:29;11.30;;;8.40;;
46288;SDS011;63105;46.158;14.604;2023-04-25T02:29:55;9.90;;;7.25;;
46288;SDS011;63105;46.158;14.604;2023-04-25T02:32:20;9.77;;;7.45;;
46288;SDS011;63105;46.158;14.604;2023-04-25T02:34:45;8.02;;;6.07;;
46288;SDS011;63105;46.158;14.604;2023-04-25T02:37:10;8.07;;;6.07;;
46288;SDS011;63105;46.158;14.604;2023-04-25T02:39:36;8.63;;;6.28;;
46288;SDS011;63105;46.158;14.604;2023-04-25T02:42:01;9.75;;;6.88;;
46288;SDS011;63105;46.158;14.604;2023-04-25T02:44:26;9.60;;;6.63;;
46288;SDS011;63105;46.158;14.604;2023-04-25T02:46:51;9.00;;;6.45;;
46288;SDS011;63105;46.158;14.604;2023-04-25T02:49:16;9.57;;;6.15;;
46288;SDS011;63105;46.158;14.604;2023-04-25T02:51:42;9.30;;;7.35;;
46288;SDS011;63105;46.158;14.604;2023-04-25T02:54:07;9.05;;;6.30;;
46288;SDS011;63105;46.158;14.604;2023-04-25T02:56:32;10.25;;;7.22;;
46288;SDS011;63105;46.158;14.604;2023-04-25T02:58:57;9.60;;;7.15;;
46288;SDS011;63105;46.158;14.604;2023-04-25T03:01:23;9.95;;;6.90;;
46288;SDS011;63105;46.158;14.604;2023-04-25T03:03:48;7.95;;;6.10;;
46288;SDS011;63105;46.158;14.604;2023-04-25T03:06:13;7.95;;;5.65;;
46288;SDS011;63105;46.158;14.604;2023-04-25T03:08:39;8.50;;;6.43;;
46288;SDS011;63105;46.158;14.604;2023-04-25T03:11:04;8.60;;;5.88;;
46288;SDS011;63105;46.158;14.604;2023-04-25T03:13:30;6.75;;;5.28;;
46288;SDS011;63105;46.158;14.604;2023-04-25T03:15:55;6.82;;;4.72;;
46288;SDS011;63105;46.158;14.604;2023-04-25T03:18:20;7.15;;;5.15;;
46288;SDS011;63105;46.158;14.604;2023-04-25T03:20:45;7.55;;;4.80;;
46288;SDS011;63105;46.158;14.604;2023-04-25T03:23:11;6.20;;;4.40;;
46288;SDS011;63105;46.158;14.604;2023-04-25T03:25:36;6.30;;;4.60;;
46288;SDS011;63105;46.158;14.604;2023-04-25T03:28:02;7.10;;;4.60;;
46288;SDS011;63105;46.158;14.604;2023-04-25T03:30:27;6.90;;;5.00;;
46288;SDS011;63105;46.158;14.604;2023-04-25T03:32:52;6.70;;;4.65;;
46288;SDS011;63105;46.158;14.604;2023-04-25T03:35:17;6.30;;;4.63;;
46288;SDS011;63105;46.158;14.604;2023-04-25T03:37:43;6.30;;;4.35;;
46288;SDS011;63105;46.158;14.604;2023-04-25T03:40:11;6.40;;;4.38;;
46288;SDS011;63105;46.158;14.604;2023-04-25T03:42:36;6.82;;;4.45;;
46288;SDS011;63105;46.158;14.604;2023-04-25T03:45:02;6.05;;;3.80;;
46288;SDS011;63105;46.158;14.604;2023-04-25T03:47:27;5.85;;;3.80;;
46288;SDS011;63105;46.158;14.604;2023-04-25T03:49:52;6.00;;;4.03;;
46288;SDS011;63105;46.158;14.604;2023-04-25T03:52:18;5.88;;;3.70;;
46288;SDS011;63105;46.158;14.604;2023-04-25T03:54:43;6.43;;;3.88;;
46288;SDS011;63105;46.158;14.604;2023-04-25T03:57:08;9.07;;;6.32;;
46288;SDS011;63105;46.158;14.604;2023-04-25T03:59:33;6.22;;;4.80;;
46288;SDS011;63105;46.158;14.604;2023-04-25T04:01:59;7.10;;;5.50;;
46288;SDS011;63105;46.158;14.604;2023-04-25T04:04:24;8.38;;;5.75;;
46288;SDS011;63105;46.158;14.604;2023-04-25T04:06:49;7.93;;;5.40;;
46288;SDS011;63105;46.158;14.604;2023-04-25T04:09:15;7.47;;;5.28;;
46288;SDS011;63105;46.158;14.604;2023-04-25T04:11:41;7.75;;;5.00;;
46288;SDS011;63105;46.158;14.604;2023-04-25T04:14:06;7.22;;;4.60;;
46288;SDS011;63105;46.158;14.604;2023-04-25T04:16:31;6.95;;;4.53;;
46288;SDS011;63105;46.158;14.604;2023-04-25T04:18:57;6.30;;;4.78;;
46288;SDS011;63105;46.158;14.604;2023-04-25T04:21:22;7.88;;;5.30;;
46288;SDS011;63105;46.158;14.604;2023-04-25T04:23:47;6.60;;;4.68;;
46288;SDS011;63105;46.158;14.604;2023-04-25T04:26:13;6.60;;;4.22;;
46288;SDS011;63105;46.158;14.604;2023-04-25T04:28:40;5.97;;;4.20;;
46288;SDS011;63105;46.158;14.604;2023-04-25T04:31:05;7.13;;;4.85;;
46288;SDS011;63105;46.158;14.604;2023-04-25T04:33:32;7.15;;;4.35;;
46288;SDS011;63105;46.158;14.604;2023-04-25T04:35:57;5.40;;;3.70;;
46288;SDS011;63105;46.158;14.604;2023-04-25T04:38:23;5.72;;;4.10;;
46288;SDS011;63105;46.158;14.604;2023-04-25T04:40:48;8.27;;;4.70;;
46288;SDS011;63105;46.158;14.604;2023-04-25T04:43:15;6.55;;;4.50;;
46288;SDS011;63105;46.158;14.604;2023-04-25T04:45:42;5.47;;;3.78;;
46288;SDS011;63105;46.158;14.604;2023-04-25T04:48:08;4.88;;;3.28;;
46288;SDS011;63105;46.158;14.604;2023-04-25T04:50:33;6.60;;;3.90;;
46288;SDS011;63105;46.158;14.604;2023-04-25T04:52:59;6.63;;;4.00;;
46288;SDS011;63105;46.158;14.604;2023-04-25T04:55:24;6.05;;;3.42;;
46288;SDS011;63105;46.158;14.604;2023-04-25T04:57:50;4.90;;;2.90;;
46288;SDS011;63105;46.158;14.604;2023-04-25T05:00:15;5.13;;;3.25;;
46288;SDS011;63105;46.158;14.604;2023-04-25T05:02:40;5.30;;;3.20;;
46288;SDS011;63105;46.158;14.604;2023-04-25T05:05:06;5.00;;;3.10;;
46288;SDS011;63105;46.158;14.604;2023-04-25T05:07:31;5.22;;;2.92;;
46288;SDS011;63105;46.158;14.604;2023-04-25T05:09:57;4.88;;;2.90;;
46288;SDS011;63105;46.158;14.604;2023-04-25T05:12:22;5.15;;;2.70;;
46288;SDS011;63105;46.158;14.604;2023-04-25T05:14:47;5.47;;;3.28;;
46288;SDS011;63105;46.158;14.604;2023-04-25T05:17:12;4.95;;;2.80;;
46288;SDS011;63105;46.158;14.604;2023-04-25T05:19:38;5.30;;;2.72;;
46288;SDS011;63105;46.158;14.604;2023-04-25T05:22:04;5.18;;;2.90;;
46288;SDS011;63105;46.158;14.604;2023-04-25T05:24:29;8.15;;;4.70;;
46288;SDS011;63105;46.158;14.604;2023-04-25T05:26:55;6.13;;;3.90;;
46288;SDS011;63105;46.158;14.604;2023-04-25T05:29:20;6.55;;;3.50;;
46288;SDS011;63105;46.158;14.604;2023-04-25T05:31:46;5.03;;;2.90;;
46288;SDS011;63105;46.158;14.604;2023-04-25T05:34:12;6.43;;;3.22;;
46288;SDS011;63105;46.158;14.604;2023-04-25T05:36:37;5.88;;;3.15;;
46288;SDS011;63105;46.158;14.604;2023-04-25T05:39:03;5.43;;;3.00;;
46288;SDS011;63105;46.158;14.604;2023-04-25T05:41:29;8.88;;;4.75;;
46288;SDS011;63105;46.158;14.604;2023-04-25T05:43:54;6.78;;;3.90;;
46288;SDS011;63105;46.158;14.604;2023-04-25T05:46:19;6.13;;;3.92;;
46288;SDS011;63105;46.158;14.604;2023-04-25T05:48:45;7.47;;;4.70;;
46288;SDS011;63105;46.158;14.604;2023-04-25T05:51:10;6.70;;;4.20;;
46288;SDS011;63105;46.158;14.604;2023-04-25T05:53:35;5.57;;;3.78;;
46288;SDS011;63105;46.158;14.604;2023-04-25T05:56:01;7.32;;;4.35;;
46288;SDS011;63105;46.158;14.604;2023-04-25T05:58:26;6.05;;;3.70;;
46288;SDS011;63105;46.158;14.604;2023-04-25T06:00:51;5.22;;;3.13;;
46288;SDS011;63105;46.158;14.604;2023-04-25T06:03:16;6.32;;;3.78;;
46288;SDS011;63105;46.158;14.604;2023-04-25T06:05:42;5.60;;;3.33;;
46288;SDS011;63105;46.158;14.604;2023-04-25T06:08:07;5.25;;;3.47;;
46288;SDS011;63105;46.158;14.604;2023-04-25T06:10:33;7.20;;;3.70;;
46288;SDS011;63105;46.158;14.604;2023-04-25T06:12:58;5.32;;;3.38;;
46288;SDS011;63105;46.158;14.604;2023-04-25T06:15:23;6.38;;;4.30;;
46288;SDS011;63105;46.158;14.604;2023-04-25T06:17:49;5.45;;;3.75;;
46288;SDS011;63105;46.158;14.604;2023-04-25T06:20:14;6.93;;;4.75;;
46288;SDS011;63105;46.158;14.604;2023-04-25T06:22:39;7.28;;;4.85;;
46288;SDS011;63105;46.158;14.604;2023-04-25T06:25:04;6.13;;;4.35;;
46288;SDS011;63105;46.158;14.604;2023-04-25T06:27:30;5.70;;;3.85;;
46288;SDS011;63105;46.158;14.604;2023-04-25T06:29:55;5.65;;;3.30;;
46288;SDS011;63105;46.158;14.604;2023-04-25T06:32:20;5.28;;;3.40;;
46288;SDS011;63105;46.158;14.604;2023-04-25T06:34:45;4.90;;;3.22;;
46288;SDS011;63105;46.158;14.604;2023-04-25T06:37:11;6.07;;;3.58;;
46288;SDS011;63105;46.158;14.604;2023-04-25T06:39:36;5.50;;;3.63;;
46288;SDS011;63105;46.158;14.604;2023-04-25T06:42:01;5.75;;;3.45;;
46288;SDS011;63105;46.158;14.604;2023-04-25T06:44:27;6.20;;;3.75;;
46288;SDS011;63105;46.158;14.604;2023-04-25T06:46:54;4.85;;;3.40;;
46288;SDS011;63105;46.158;14.604;2023-04-25T06:49:19;5.55;;;3.58;;
46288;SDS011;63105;46.158;14.604;2023-04-25T06:51:44;5.03;;;3.33;;
46288;SDS011;63105;46.158;14.604;2023-04-25T06:54:10;5.60;;;3.90;;
46288;SDS011;63105;46.158;14.604;2023-04-25T06:56:35;5.43;;;3.58;;
46288;SDS011;63105;46.158;14.604;2023-04-25T06:59:00;5.07;;;3.40;;
46288;SDS011;63105;46.158;14.604;2023-04-25T07:01:26;5.30;;;3.55;;
46288;SDS011;63105;46.158;14.604;2023-04-25T07:03:51;5.43;;;3.90;;
46288;SDS011;63105;46.158;14.604;2023-04-25T07:06:16;5.57;;;4.05;;
46288;SDS011;63105;46.158;14.604;2023-04-25T07:08:41;6.32;;;4.72;;
46288;SDS011;63105;46.158;14.604;2023-04-25T07:11:07;5.88;;;4.30;;
46288;SDS011;63105;46.158;14.604;2023-04-25T07:13:32;5.72;;;3.90;;
46288;SDS011;63105;46.158;14.604;2023-04-25T07:15:57;5.50;;;3.88;;
46288;SDS011;63105;46.158;14.604;2023-04-25T07:18:24;5.63;;;3.90;;
46288;SDS011;63105;46.158;14.604;2023-04-25T07:20:49;6.30;;;3.80;;
46288;SDS011;63105;46.158;14.604;2023-04-25T07:23:14;5.57;;;3.70;;
46288;SDS011;63105;46.158;14.604;2023-04-25T07:25:39;4.82;;;3.17;;
46288;SDS011;63105;46.158;14.604;2023-04-25T07:28:04;5.63;;;3.75;;
46288;SDS011;63105;46.158;14.604;2023-04-25T07:30:30;5.00;;;3.40;;
46288;SDS011;63105;46.158;14.604;2023-04-25T07:32:55;5.43;;;3.70;;
46288;SDS011;63105;46.158;14.604;2023-04-25T07:35:20;5.70;;;3.63;;
46288;SDS011;63105;46.158;14.604;2023-04-25T07:37:46;5.25;;;3.25;;
46288;SDS011;63105;46.158;14.604;2023-04-25T07:40:11;3.92;;;2.42;;
46288;SDS011;63105;46.158;14.604;2023-04-25T07:42:36;4.18;;;2.50;;
46288;SDS011;63105;46.158;14.604;2023-04-25T07:45:01;3.95;;;2.58;;
46288;SDS011;63105;46.158;14.604;2023-04-25T07:47:28;4.15;;;2.50;;
46288;SDS011;63105;46.158;14.604;2023-04-25T07:49:53;4.70;;;2.80;;
46288;SDS011;63105;46.158;14.604;2023-04-25T07:52:18;4.15;;;2.80;;
46288;SDS011;63105;46.158;14.604;2023-04-25T07:54:43;4.57;;;2.67;;
46288;SDS011;63105;46.158;14.604;2023-04-25T07:57:09;4.90;;;2.97;;
46288;SDS011;63105;46.158;14.604;2023-04-25T07:59:34;4.55;;;2.58;;
46288;SDS011;63105;46.158;14.604;2023-04-25T08:02:00;3.63;;;2.30;;
46288;SDS011;63105;46.158;14.604;2023-04-25T08:04:25;4.63;;;2.55;;
46288;SDS011;63105;46.158;14.604;2023-04-25T08:06:50;3.75;;;2.50;;
46288;SDS011;63105;46.158;14.604;2023-04-25T08:09:16;5.43;;;2.72;;
46288;SDS011;63105;46.158;14.604;2023-04-25T08:11:41;4.38;;;2.80;;
46288;SDS011;63105;46.158;14.604;2023-04-25T08:14:07;4.57;;;2.67;;
46288;SDS011;63105;46.158;14.604;2023-04-25T08:16:33;3.92;;;2.65;;
46288;SDS011;63105;46.158;14.604;2023-04-25T08:18:58;4.90;;;2.40;;
46288;SDS011;63105;46.158;14.604;2023-04-25T08:21:24;4.40;;;2.63;;
46288;SDS011;63105;46.158;14.604;2023-04-25T08:23:51;4.25;;;2.78;;
46288;SDS011;63105;46.158;14.604;2023-04-25T08:26:17;4.88;;;3.05;;
46288;SDS011;63105;46.158;14.604;2023-04-25T08:28:42;5.80;;;3.00;;
46288;SDS011;63105;46.158;14.604;2023-04-25T08:31:07;4.13;;;2.83;;
46288;SDS011;63105;46.158;14.604;2023-04-25T08:33:32;4.80;;;2.90;;
46288;SDS011;63105;46.158;14.604;2023-04-25T08:35:58;4.07;;;2.50;;
46288;SDS011;63105;46.158;14.604;2023-04-25T08:38:24;3.95;;;2.03;;
46288;SDS011;63105;46.158;14.604;2023-04-25T08:40:49;5.22;;;3.00;;
46288;SDS011;63105;46.158;14.604;2023-04-25T08:43:17;4.38;;;2.65;;
46288;SDS011;63105;46.158;14.604;2023-04-25T08:45:42;4.00;;;2.45;;
46288;SDS011;63105;46.158;14.604;2023-04-25T08:48:15;3.92;;;2.50;;
46288;SDS011;63105;46.158;14.604;2023-04-25T08:50:58;3.95;;;2.47;;
46288;SDS011;63105;46.158;14.604;2023-04-25T08:53:26;3.92;;;2.20;;
46288;SDS011;63105;46.158;14.604;2023-04-25T08:55:53;3.80;;;2.00;;
46288;SDS011;63105;46.158;14.604;2023-04-25T08:58:19;5.32;;;3.03;;
46288;SDS011;63105;46.158;14.604;2023-04-25T09:00:45;3.50;;;2.00;;
46288;SDS011;63105;46.158;14.604;2023-04-25T09:03:11;3.95;;;2.55;;
46288;SDS011;63105;46.158;14.604;2023-04-25T09:05:36;4.07;;;2.58;;
46288;SDS011;63105;46.158;14.604;2023-04-25T09:08:02;3.90;;;2.17;;
46288;SDS011;63105;46.158;14.604;2023-04-25T09:10:27;3.47;;;1.90;;
46288;SDS011;63105;46.158;14.604;2023-04-25T09:15:30;3.20;;;1.90;;
46288;SDS011;63105;46.158;14.604;2023-04-25T09:17:56;3.42;;;1.95;;
46288;SDS011;63105;46.158;14.604;2023-04-25T09:20:22;3.80;;;2.30;;
46288;SDS011;63105;46.158;14.604;2023-04-25T09:22:47;3.28;;;1.90;;
46288;SDS011;63105;46.158;14.604;2023-04-25T09:25:12;4.05;;;2.00;;
46288;SDS011;63105;46.158;14.604;2023-04-25T09:27:49;3.80;;;2.35;;
46288;SDS011;63105;46.158;14.604;2023-04-25T09:30:15;3.60;;;2.10;;
46288;SDS011;63105;46.158;14.604;2023-04-25T09:32:41;4.68;;;2.40;;
46288;SDS011;63105;46.158;14.604;2023-04-25T09:35:07;3.75;;;2.40;;
46288;SDS011;63105;46.158;14.604;2023-04-25T09:37:33;3.78;;;2.10;;
46288;SDS011;63105;46.158;14.604;2023-04-25T09:39:58;2.90;;;1.67;;
46288;SDS011;63105;46.158;14.604;2023-04-25T09:42:26;4.60;;;2.65;;
46288;SDS011;63105;46.158;14.604;2023-04-25T09:44:52;4.15;;;2.40;;
46288;SDS011;63105;46.158;14.604;2023-04-25T09:47:18;4.13;;;2.55;;
46288;SDS011;63105;46.158;14.604;2023-04-25T09:49:46;3.00;;;1.77;;
46288;SDS011;63105;46.158;14.604;2023-04-25T09:52:15;3.55;;;2.10;;
46288;SDS011;63105;46.158;14.604;2023-04-25T09:54:41;4.45;;;2.58;;
46288;SDS011;63105;46.158;14.604;2023-04-25T09:57:10;4.65;;;2.80;;
46288;SDS011;63105;46.158;14.604;2023-04-25T09:59:36;4.30;;;2.50;;
46288;SDS011;63105;46.158;14.604;2023-04-25T10:02:03;4.80;;;2.95;;
46288;SDS011;63105;46.158;14.604;2023-04-25T10:04:28;3.90;;;2.40;;
46288;SDS011;63105;46.158;14.604;2023-04-25T10:06:55;4.18;;;2.50;;
46288;SDS011;63105;46.158;14.604;2023-04-25T10:09:21;3.65;;;2.08;;
46288;SDS011;63105;46.158;14.604;2023-04-25T10:11:50;3.35;;;1.90;;
46288;SDS011;63105;46.158;14.604;2023-04-25T10:14:15;4.13;;;2.38;;
46288;SDS011;63105;46.158;14.604;2023-04-25T10:16:41;5.13;;;2.70;;
46288;SDS011;63105;46.158;14.604;2023-04-25T10:19:07;5.18;;;2.85;;
46288;SDS011;63105;46.158;14.604;2023-04-25T10:21:32;5.07;;;3.40;;
46288;SDS011;63105;46.158;14.604;2023-04-25T10:23:58;4.97;;;3.00;;
46288;SDS011;63105;46.158;14.604;2023-04-25T10:26:24;5.32;;;3.20;;
46288;SDS011;63105;46.158;14.604;2023-04-25T10:28:56;4.45;;;2.95;;
46288;SDS011;63105;46.158;14.604;2023-04-25T10:31:22;4.60;;;2.85;;
46288;SDS011;63105;46.158;14.604;2023-04-25T10:33:48;4.55;;;3.05;;
46288;SDS011;63105;46.158;14.604;2023-04-25T10:36:14;3.78;;;2.47;;
46288;SDS011;63105;46.158;14.604;2023-04-25T10:38:41;3.72;;;1.98;;
46288;SDS011;63105;46.158;14.604;2023-04-25T10:41:07;7.07;;;3.83;;
46288;SDS011;63105;46.158;14.604;2023-04-25T10:43:42;4.72;;;2.80;;
46288;SDS011;63105;46.158;14.604;2023-04-25T10:46:27;4.10;;;2.30;;
46288;SDS011;63105;46.158;14.604;2023-04-25T10:48:53;4.15;;;2.83;;
46288;SDS011;63105;46.158;14.604;2023-04-25T10:53:48;4.28;;;2.63;;
46288;SDS011;63105;46.158;14.604;2023-04-25T10:56:31;3.58;;;2.35;;
46288;SDS011;63105;46.158;14.604;2023-04-25T11:04:06;3.53;;;2.20;;
46288;SDS011;63105;46.158;14.604;2023-04-25T11:06:52;3.67;;;2.20;;
46288;SDS011;63105;46.158;14.604;2023-04-25T11:09:20;3.72;;;2.15;;
46288;SDS011;63105;46.158;14.604;2023-04-25T11:11:54;3.88;;;2.30;;
46288;SDS011;63105;46.158;14.604;2023-04-25T11:14:20;2.78;;;1.58;;
46288;SDS011;63105;46.158;14.604;2023-04-25T11:16:45;3.33;;;1.85;;
46288;SDS011;63105;46.158;14.604;2023-04-25T11:19:11;3.60;;;1.67;;
46288;SDS011;63105;46.158;14.604;2023-04-25T11:21:36;3.45;;;1.80;;
46288;SDS011;63105;46.158;14.604;2023-04-25T11:24:01;2.70;;;1.30;;
46288;SDS011;63105;46.158;14.604;2023-04-25T11:26:27;2.53;;;1.25;;
46288;SDS011;63105;46.158;14.604;2023-04-25T11:28:56;3.85;;;1.80;;
46288;SDS011;63105;46.158;14.604;2023-04-25T11:31:21;3.55;;;1.33;;
46288;SDS011;63105;46.158;14.604;2023-04-25T11:33:47;3.08;;;1.60;;
46288;SDS011;63105;46.158;14.604;2023-04-25T11:36:12;3.33;;;1.80;;
46288;SDS011;63105;46.158;14.604;2023-04-25T11:38:37;4.28;;;2.58;;
46288;SDS011;63105;46.158;14.604;2023-04-25T11:41:03;4.40;;;2.60;;
46288;SDS011;63105;46.158;14.604;2023-04-25T11:43:28;3.35;;;2.00;;
46288;SDS011;63105;46.158;14.604;2023-04-25T11:45:53;2.80;;;1.70;;
46288;SDS011;63105;46.158;14.604;2023-04-25T11:48:18;3.28;;;1.80;;
46288;SDS011;63105;46.158;14.604;2023-04-25T11:50:44;2.38;;;1.33;;
46288;SDS011;63105;46.158;14.604;2023-04-25T11:53:09;2.80;;;1.45;;
46288;SDS011;63105;46.158;14.604;2023-04-25T11:55:35;2.67;;;1.30;;
46288;SDS011;63105;46.158;14.604;2023-04-25T11:58:01;2.58;;;1.25;;
46288;SDS011;63105;46.158;14.604;2023-04-25T12:00:27;3.55;;;1.70;;
46288;SDS011;63105;46.158;14.604;2023-04-25T12:02:53;3.53;;;1.67;;
46288;SDS011;63105;46.158;14.604;2023-04-25T12:05:18;4.10;;;1.73;;
46288;SDS011;63105;46.158;14.604;2023-04-25T12:07:45;3.47;;;1.50;;
46288;SDS011;63105;46.158;14.604;2023-04-25T12:10:11;3.40;;;1.77;;
46288;SDS011;63105;46.158;14.604;2023-04-25T12:12:37;2.72;;;1.42;;
46288;SDS011;63105;46.158;14.604;2023-04-25T12:17:39;2.65;;;1.25;;
46288;SDS011;63105;46.158;14.604;2023-04-25T12:20:09;1.80;;;1.02;;
46288;SDS011;63105;46.158;14.604;2023-04-25T12:22:34;2.65;;;1.20;;
46288;SDS011;63105;46.158;14.604;2023-04-25T12:24:59;2.45;;;1.20;;
46288;SDS011;63105;46.158;14.604;2023-04-25T12:27:25;2.80;;;1.38;;
46288;SDS011;63105;46.158;14.604;2023-04-25T12:29:51;2.47;;;1.27;;
46288;SDS011;63105;46.158;14.604;2023-04-25T12:32:17;2.70;;;1.20;;
46288;SDS011;63105;46.158;14.604;2023-04-25T12:34:42;3.03;;;1.58;;
46288;SDS011;63105;46.158;14.604;2023-04-25T12:37:08;3.20;;;1.50;;
46288;SDS011;63105;46.158;14.604;2023-04-25T12:39:33;2.55;;;1.42;;
46288;SDS011;63105;46.158;14.604;2023-04-25T12:41:59;3.10;;;1.60;;
46288;SDS011;63105;46.158;14.604;2023-04-25T12:44:24;2.60;;;1.40;;
46288;SDS011;63105;46.158;14.604;2023-04-25T12:46:49;3.78;;;1.20;;
46288;SDS011;63105;46.158;14.604;2023-04-25T12:49:15;3.03;;;1.15;;
46288;SDS011;63105;46.158;14.604;2023-04-25T12:51:40;3.40;;;1.58;;
46288;SDS011;63105;46.158;14.604;2023-04-25T12:54:06;3.55;;;1.60;;
46288;SDS011;63105;46.158;14.604;2023-04-25T12:56:32;3.13;;;1.30;;
46288;SDS011;63105;46.158;14.604;2023-04-25T12:58:57;2.80;;;1.30;;
46288;SDS011;63105;46.158;14.604;2023-04-25T13:01:23;2.60;;;1.20;;
46288;SDS011;63105;46.158;14.604;2023-04-25T13:03:48;1.65;;;0.90;;
46288;SDS011;63105;46.158;14.604;2023-04-25T13:06:14;3.45;;;1.73;;
46288;SDS011;63105;46.158;14.604;2023-04-25T13:08:40;3.17;;;1.73;;
46288;SDS011;63105;46.158;14.604;2023-04-25T13:11:06;3.60;;;1.38;;
46288;SDS011;63105;46.158;14.604;2023-04-25T13:13:31;3.00;;;1.70;;
46288;SDS011;63105;46.158;14.604;2023-04-25T13:15:57;3.00;;;1.40;;
46288;SDS011;63105;46.158;14.604;2023-04-25T13:18:22;3.58;;;1.70;;
46288;SDS011;63105;46.158;14.604;2023-04-25T13:20:54;2.80;;;1.20;;
46288;SDS011;63105;46.158;14.604;2023-04-25T13:23:19;2.83;;;1.20;;
46288;SDS011;63105;46.158;14.604;2023-04-25T13:25:47;3.10;;;1.50;;
46288;SDS011;63105;46.158;14.604;2023-04-25T13:28:13;3.00;;;1.30;;
46288;SDS011;63105;46.158;14.604;2023-04-25T13:30:39;3.50;;;1.25;;
46288;SDS011;63105;46.158;14.604;2023-04-25T13:33:04;2.75;;;1.30;;
46288;SDS011;63105;46.158;14.604;2023-04-25T13:35:31;2.40;;;1.10;;
46288;SDS011;63105;46.158;14.604;2023-04-25T13:37:57;2.22;;;1.05;;
46288;SDS011;63105;46.158;14.604;2023-04-25T13:40:22;2.10;;;1.00;;
46288;SDS011;63105;46.158;14.604;2023-04-25T13:42:47;2.28;;;1.10;;
46288;SDS011;63105;46.158;14.604;2023-04-25T13:45:13;2.90;;;1.10;;
46288;SDS011;63105;46.158;14.604;2023-04-25T13:47:38;2.80;;;1.00;;
46288;SDS011;63105;46.158;14.604;2023-04-25T13:50:03;3.08;;;1.38;;
46288;SDS011;63105;46.158;14.604;2023-04-25T13:52:30;2.92;;;1.30;;
46288;SDS011;63105;46.158;14.604;2023-04-25T13:54:55;2.35;;;1.10;;
46288;SDS011;63105;46.158;14.604;2023-04-25T13:57:21;2.47;;;1.10;;
46288;SDS011;63105;46.158;14.604;2023-04-25T13:59:46;2.35;;;1.15;;
46288;SDS011;63105;46.158;14.604;2023-04-25T14:02:11;2.58;;;1.05;;
46288;SDS011;63105;46.158;14.604;2023-04-25T14:04:37;2.28;;;1.00;;
46288;SDS011;63105;46.158;14.604;2023-04-25T14:07:02;2.20;;;1.10;;
46288;SDS011;63105;46.158;14.604;2023-04-25T14:09:28;2.60;;;1.00;;
46288;SDS011;63105;46.158;14.604;2023-04-25T14:11:53;1.95;;;0.90;;
46288;SDS011;63105;46.158;14.604;2023-04-25T14:14:19;2.13;;;0.80;;
46288;SDS011;63105;46.158;14.604;2023-04-25T14:16:44;1.77;;;0.82;;
46288;SDS011;63105;46.158;14.604;2023-04-25T14:19:10;1.60;;;0.90;;
46288;SDS011;63105;46.158;14.604;2023-04-25T14:21:36;1.40;;;0.70;;
46288;SDS011;63105;46.158;14.604;2023-04-25T14:24:01;1.58;;;0.80;;
46288;SDS011;63105;46.158;14.604;2023-04-25T14:26:26;1.60;;;0.80;;
46288;SDS011;63105;46.158;14.604;2023-04-25T14:28:52;1.67;;;0.80;;
46288;SDS011;63105;46.158;14.604;2023-04-25T14:31:17;1.20;;;0.70;;
46288;SDS011;63105;46.158;14.604;2023-04-25T14:33:42;1.70;;;0.80;;
46288;SDS011;63105;46.158;14.604;2023-04-25T14:36:08;1.58;;;0.88;;